createdAt,value
2022-08-10T00:00:23.635Z,18.90
2022-08-10T00:02:59.879Z,18.93
2022-08-10T00:05:43.213Z,18.88
2022-08-10T00:08:27.343Z,18.89
2022-08-10T00:11:00.443Z,18.90
2022-08-10T00:13:34.936Z,18.83
2022-08-10T00:16:08.198Z,18.80
2022-08-10T00:18:41.443Z,18.73
2022-08-10T00:21:14.642Z,18.70
2022-08-10T00:23:49.229Z,18.60
2022-08-10T00:26:22.619Z,18.58
2022-08-10T00:28:55.920Z,18.50
2022-08-10T00:31:29.080Z,18.44
2022-08-10T00:34:02.539Z,18.45
2022-08-10T00:36:35.751Z,18.48
2022-08-10T00:39:13.676Z,18.45
2022-08-10T00:42:01.851Z,18.45
2022-08-10T00:44:43.195Z,18.39
2022-08-10T00:47:35.548Z,18.36
2022-08-10T00:50:11.633Z,18.41
2022-08-10T00:52:45.676Z,18.49
2022-08-10T00:55:21.104Z,18.40
2022-08-10T00:57:55.400Z,18.38
2022-08-10T01:00:29.683Z,18.33
2022-08-10T01:03:03.022Z,18.30
2022-08-10T01:05:51.669Z,18.31
2022-08-10T01:08:32.498Z,18.28
2022-08-10T01:12:38.352Z,18.24
2022-08-10T01:14:14.511Z,18.22
2022-08-10T01:16:55.944Z,18.15
2022-08-10T01:19:55.626Z,18.21
2022-08-10T01:23:04.801Z,18.15
2022-08-10T01:26:11.022Z,18.17
2022-08-10T01:29:00.216Z,18.11
2022-08-10T01:31:40.751Z,18.09
2022-08-10T01:34:21.952Z,17.96
2022-08-10T01:37:06.318Z,17.87
2022-08-10T01:39:45.215Z,17.90
2022-08-10T01:42:21.549Z,17.89
2022-08-10T01:44:57.925Z,17.87
2022-08-10T01:47:56.715Z,17.83
2022-08-10T01:50:34.931Z,17.78
2022-08-10T01:53:40.054Z,17.78
2022-08-10T01:56:17.914Z,17.78
2022-08-10T01:58:57.623Z,17.76
2022-08-10T02:01:36.432Z,17.75
2022-08-10T02:04:15.036Z,17.70
2022-08-10T02:06:52.469Z,17.65
2022-08-10T02:09:29.678Z,17.56
2022-08-10T02:12:08.927Z,17.42
2022-08-10T02:14:47.907Z,17.43
2022-08-10T02:17:57.491Z,17.53
2022-08-10T02:20:27.481Z,17.51
2022-08-10T02:23:09.557Z,17.45
2022-08-10T02:25:45.168Z,17.45
2022-08-10T02:28:29.704Z,17.41
2022-08-10T02:31:11.750Z,17.39
2022-08-10T02:33:57.841Z,17.39
2022-08-10T02:36:36.786Z,17.35
2022-08-10T02:39:11.064Z,17.36
2022-08-10T02:45:12.377Z,17.28
2022-08-10T02:45:20.480Z,17.25
2022-08-10T02:47:52.666Z,17.16
2022-08-10T02:50:30.446Z,17.14
2022-08-10T02:53:56.108Z,17.09
2022-08-10T02:56:12.281Z,17.11
2022-08-10T02:58:47.771Z,16.91
2022-08-10T03:01:26.816Z,16.74
2022-08-10T03:04:03.449Z,16.70
2022-08-10T03:06:43.788Z,16.70
2022-08-10T03:09:20.337Z,16.67
2022-08-10T03:12:34.891Z,16.69
2022-08-10T03:14:50.901Z,16.71
2022-08-10T03:17:25.448Z,16.59
2022-08-10T03:20:35.675Z,16.62
2022-08-10T03:22:55.340Z,16.56
2022-08-10T03:25:30.846Z,16.51
2022-08-10T03:28:04.799Z,16.51
2022-08-10T03:30:38.870Z,16.43
2022-08-10T03:33:12.876Z,16.43
2022-08-10T03:36:43.020Z,16.38
2022-08-10T03:38:40.478Z,16.39
2022-08-10T03:41:17.589Z,16.43
2022-08-10T03:43:54.279Z,16.40
2022-08-10T03:46:29.431Z,16.39
2022-08-10T03:49:05.492Z,16.35
2022-08-10T03:51:38.968Z,16.31
2022-08-10T03:54:12.434Z,16.25
2022-08-10T03:56:47.420Z,16.26
2022-08-10T03:59:21.435Z,16.25
2022-08-10T04:02:43.559Z,16.21
2022-08-10T04:04:48.293Z,16.16
2022-08-10T04:07:21.871Z,16.13
2022-08-10T04:09:56.432Z,16.10
2022-08-10T04:12:33.511Z,16.14
2022-08-10T04:15:08.155Z,16.16
2022-08-10T04:18:03.540Z,15.95
2022-08-10T04:20:39.606Z,15.95
2022-08-10T04:23:18.764Z,15.96
2022-08-10T04:25:53.372Z,15.88
2022-08-10T04:28:28.237Z,15.87
2022-08-10T04:31:04.352Z,15.82
2022-08-10T04:33:41.543Z,15.85
2022-08-10T04:36:16.905Z,15.87
2022-08-10T04:38:51.576Z,15.89
2022-08-10T04:41:25.415Z,15.79
2022-08-10T04:44:00.153Z,15.89
2022-08-10T04:46:42.881Z,15.83
2022-08-10T04:49:52.161Z,15.81
2022-08-10T04:52:19.593Z,15.81
2022-08-10T04:54:52.735Z,15.87
2022-08-10T04:57:26.191Z,15.89
2022-08-10T05:00:00.716Z,15.99
2022-08-10T05:02:34.056Z,16.10
2022-08-10T05:05:09.015Z,16.21
2022-08-10T05:07:53.763Z,16.28
2022-08-10T05:10:29.923Z,16.39
2022-08-10T05:13:03.099Z,16.32
2022-08-10T05:15:37.731Z,16.43
2022-08-10T05:18:11.400Z,16.47
2022-08-10T05:20:48.474Z,16.58
2022-08-10T05:23:23.227Z,16.62
2022-08-10T05:25:56.562Z,16.94
2022-08-10T05:28:30.795Z,17.49
2022-08-10T05:31:09.943Z,18.20
2022-08-10T05:33:48.017Z,18.95
2022-08-10T05:36:21.680Z,19.71
2022-08-10T05:38:55.800Z,20.37
2022-08-10T05:41:29.826Z,20.96
2022-08-10T05:44:03.684Z,21.47
2022-08-10T05:46:38.136Z,22.08
2022-08-10T05:49:11.602Z,22.70
2022-08-10T05:51:45.198Z,23.27
2022-08-10T05:54:18.600Z,23.55
2022-08-10T05:56:54.834Z,23.92
2022-08-10T06:00:11.249Z,23.80
2022-08-10T06:02:36.399Z,24.47
2022-08-10T06:05:11.675Z,24.68
2022-08-10T06:07:50.750Z,25.09
2022-08-10T06:10:31.371Z,25.04
2022-08-10T06:13:30.832Z,25.41
2022-08-10T06:16:11.332Z,25.46
2022-08-10T06:18:46.914Z,25.77
2022-08-10T06:21:21.273Z,25.89
2022-08-10T06:23:55.611Z,26.31
2022-08-10T06:26:28.807Z,26.41
2022-08-10T06:29:11.190Z,26.83
2022-08-10T06:31:49.928Z,27.14
2022-08-10T06:34:30.822Z,27.40
2022-08-10T06:37:07.472Z,27.68
2022-08-10T06:39:40.763Z,27.65
2022-08-10T06:42:18.608Z,27.95
2022-08-10T06:44:59.697Z,28.23
2022-08-10T06:47:41.201Z,28.72
2022-08-10T06:50:44.960Z,28.72
2022-08-10T06:53:17.450Z,29.01
2022-08-10T06:55:56.786Z,29.11
2022-08-10T06:58:37.451Z,29.35
2022-08-10T07:01:17.256Z,29.55
2022-08-10T07:03:59.980Z,29.39
2022-08-10T07:06:37.814Z,29.33
2022-08-10T07:09:12.352Z,29.69
2022-08-10T07:11:50.997Z,29.90
2022-08-10T07:14:26.256Z,30.25
2022-08-10T07:17:00.747Z,30.26
2022-08-10T07:19:34.877Z,30.50
2022-08-10T07:23:26.827Z,30.81
2022-08-10T07:25:26.106Z,31.07
2022-08-10T07:28:02.028Z,30.01
2022-08-10T07:30:42.107Z,30.15
2022-08-10T07:33:18.540Z,30.48
2022-08-10T07:35:52.972Z,30.63
2022-08-10T07:38:31.026Z,30.80
2022-08-10T07:41:07.142Z,31.53
2022-08-10T07:43:41.786Z,31.73
2022-08-10T07:46:17.032Z,32.47
2022-08-10T07:48:55.968Z,32.02
2022-08-10T07:51:32.452Z,30.89
2022-08-10T07:54:08.763Z,31.48
2022-08-10T07:56:48.966Z,31.46
2022-08-10T07:59:30.259Z,30.92
2022-08-10T08:02:06.740Z,30.44
2022-08-10T08:04:41.996Z,30.38
2022-08-10T08:07:19.418Z,30.16
2022-08-10T08:10:00.939Z,30.22
2022-08-10T08:12:38.375Z,29.97
2022-08-10T08:16:20.343Z,30.03
2022-08-10T08:18:10.628Z,30.19
2022-08-10T08:20:45.701Z,30.57
2022-08-10T08:24:04.978Z,30.51
2022-08-10T08:26:17.255Z,30.31
2022-08-10T08:28:52.264Z,30.22
2022-08-10T08:31:26.576Z,29.63
2022-08-10T08:34:00.348Z,29.32
2022-08-10T08:36:35.096Z,28.56
2022-08-10T08:39:08.546Z,28.88
2022-08-10T08:42:10.770Z,29.33
2022-08-10T08:45:01.646Z,29.00
2022-08-10T08:48:05.607Z,28.87
2022-08-10T08:50:59.617Z,29.32
2022-08-10T08:54:02.314Z,29.46
2022-08-10T08:56:48.211Z,29.47
2022-08-10T08:59:43.252Z,29.23
2022-08-10T09:02:35.816Z,29.39
2022-08-10T09:05:27.605Z,29.40
2022-08-10T09:09:00.580Z,28.94
2022-08-10T09:11:50.312Z,28.93
2022-08-10T09:14:32.538Z,29.36
2022-08-10T09:17:17.468Z,29.39
2022-08-10T09:20:00.225Z,29.23
2022-08-10T09:22:41.906Z,29.40
2022-08-10T09:25:19.675Z,29.67
2022-08-10T09:28:05.009Z,29.50
2022-08-10T09:31:21.525Z,28.81
2022-08-10T09:36:25.385Z,28.91
2022-08-10T09:36:58.610Z,28.63
2022-08-10T09:40:57.001Z,28.62
2022-08-10T09:43:07.577Z,28.81
2022-08-10T09:45:56.267Z,28.75
2022-08-10T09:48:47.005Z,28.78
2022-08-10T09:51:45.446Z,28.74
2022-08-10T09:54:49.895Z,28.29
2022-08-10T09:57:44.352Z,28.62
2022-08-10T10:00:24.696Z,29.01
2022-08-10T10:03:17.228Z,28.76
2022-08-10T10:06:04.956Z,28.57
2022-08-10T10:08:48.671Z,28.25
2022-08-10T10:11:45.408Z,28.44
2022-08-10T10:14:31.525Z,29.06
2022-08-10T10:17:14.271Z,29.25
2022-08-10T10:20:05.373Z,28.89
2022-08-10T10:22:51.965Z,28.89
2022-08-10T10:25:51.227Z,28.78
2022-08-10T10:29:19.729Z,29.12
2022-08-10T10:31:37.230Z,29.25
2022-08-10T10:34:17.970Z,29.02
2022-08-10T10:36:53.810Z,29.31
2022-08-10T10:39:28.214Z,29.48
2022-08-10T10:42:34.969Z,29.05
2022-08-10T10:45:19.989Z,29.04
2022-08-10T10:48:06.398Z,29.09
2022-08-10T10:50:56.876Z,29.25
2022-08-10T10:53:38.628Z,29.60
2022-08-10T10:56:21.425Z,29.47
2022-08-10T10:59:35.490Z,29.45
2022-08-10T11:02:10.870Z,29.09
2022-08-10T11:04:53.997Z,29.05
2022-08-10T11:07:37.203Z,28.55
2022-08-10T11:10:33.327Z,28.40
2022-08-10T11:14:26.344Z,28.53
2022-08-10T11:16:21.727Z,28.30
2022-08-10T11:19:07.631Z,28.54
2022-08-10T11:21:56.493Z,28.43
2022-08-10T11:24:48.124Z,28.19
2022-08-10T11:27:34.638Z,28.05
2022-08-10T11:30:10.878Z,28.06
2022-08-10T11:32:58.344Z,28.23
2022-08-10T11:35:41.568Z,28.47
2022-08-10T11:38:29.657Z,28.45
2022-08-10T11:42:12.384Z,28.38
2022-08-10T11:44:22.405Z,28.43
2022-08-10T11:47:03.456Z,28.61
2022-08-10T11:49:46.838Z,28.43
2022-08-10T11:52:29.501Z,28.35
2022-08-10T11:55:12.559Z,28.29
2022-08-10T11:57:55.812Z,28.40
2022-08-10T12:00:36.324Z,28.49
2022-08-10T12:03:10.880Z,28.36
2022-08-10T12:05:53.730Z,28.46
2022-08-10T12:10:03.451Z,28.44
2022-08-10T12:11:26.451Z,28.58
2022-08-10T12:14:21.263Z,28.62
2022-08-10T12:17:04.821Z,28.42
2022-08-10T12:20:02.310Z,28.67
2022-08-10T12:22:48.359Z,28.60
2022-08-10T12:25:56.579Z,28.70
2022-08-10T12:28:51.497Z,28.49
2022-08-10T12:31:32.569Z,28.62
2022-08-10T12:34:21.471Z,28.74
2022-08-10T12:37:06.044Z,28.48
2022-08-10T12:40:12.034Z,28.80
2022-08-10T12:43:13.122Z,28.66
2022-08-10T12:46:06.969Z,28.63
2022-08-10T12:48:51.913Z,28.59
2022-08-10T12:51:30.352Z,28.64
2022-08-10T12:54:13.588Z,28.54
2022-08-10T12:57:00.771Z,28.52
2022-08-10T12:59:43.490Z,28.75
2022-08-10T13:02:24.264Z,28.67
2022-08-10T13:05:00.631Z,28.89
2022-08-10T13:08:25.218Z,28.95
2022-08-10T13:10:31.422Z,28.60
2022-08-10T13:13:04.847Z,28.59
2022-08-10T13:15:48.773Z,28.81
2022-08-10T13:18:29.443Z,28.67
2022-08-10T13:21:20.269Z,28.69
2022-08-10T13:24:04.545Z,28.68
2022-08-10T13:27:10.884Z,28.78
2022-08-10T13:29:43.542Z,28.86
2022-08-10T13:32:25.384Z,28.83
2022-08-10T13:35:04.958Z,29.07
2022-08-10T13:37:43.807Z,28.87
2022-08-10T13:40:21.666Z,28.80
2022-08-10T13:42:58.462Z,28.98
2022-08-10T13:45:32.275Z,28.96
2022-08-10T13:48:14.304Z,29.02
2022-08-10T13:50:49.090Z,28.88
2022-08-10T13:53:23.633Z,29.02
2022-08-10T13:55:59.175Z,29.01
2022-08-10T13:58:35.113Z,28.62
2022-08-10T14:01:12.825Z,28.77
2022-08-10T14:03:47.843Z,28.83
2022-08-10T14:06:29.850Z,29.03
2022-08-10T14:09:08.897Z,28.83
2022-08-10T14:11:45.080Z,29.09
2022-08-10T14:14:21.191Z,28.91
2022-08-10T14:16:55.264Z,28.98
2022-08-10T14:19:43.788Z,28.83
2022-08-10T14:22:19.535Z,28.90
2022-08-10T14:25:11.590Z,28.71
2022-08-10T14:28:03.426Z,28.71
2022-08-10T14:30:37.500Z,29.03
2022-08-10T14:33:17.027Z,29.01
2022-08-10T14:36:19.902Z,29.09
2022-08-10T14:38:46.018Z,29.22
2022-08-10T14:42:02.716Z,29.14
2022-08-10T14:44:22.017Z,29.10
2022-08-10T14:46:59.414Z,29.09
2022-08-10T14:49:58.057Z,29.21
2022-08-10T14:52:28.316Z,29.02
2022-08-10T14:55:06.370Z,28.83
2022-08-10T14:58:17.200Z,28.79
2022-08-10T15:00:49.902Z,28.89
2022-08-10T15:04:00.813Z,28.94
2022-08-10T15:06:30.888Z,28.84
2022-08-10T15:09:12.665Z,28.96
2022-08-10T15:12:14.169Z,29.05
2022-08-10T15:14:51.459Z,28.95
2022-08-10T15:17:28.630Z,28.81
2022-08-10T15:20:14.450Z,28.82
2022-08-10T15:22:51.184Z,28.67
2022-08-10T15:25:27.508Z,28.83
2022-08-10T15:28:06.701Z,28.81
2022-08-10T15:30:43.641Z,28.77
2022-08-10T15:34:02.104Z,28.86
2022-08-10T15:37:36.051Z,28.74
2022-08-10T15:40:21.641Z,28.71
2022-08-10T15:43:00.440Z,28.67
2022-08-10T15:45:34.641Z,28.92
2022-08-10T15:48:08.333Z,28.80
2022-08-10T15:50:46.745Z,28.72
2022-08-10T15:53:49.367Z,28.74
2022-08-10T15:56:31.910Z,28.70
2022-08-10T15:59:14.382Z,28.69
2022-08-10T16:02:14.959Z,28.68
2022-08-10T16:04:50.747Z,28.65
2022-08-10T16:07:38.954Z,28.55
2022-08-10T16:10:28.666Z,28.61
2022-08-10T16:13:50.764Z,28.48
2022-08-10T16:16:05.452Z,28.34
2022-08-10T16:18:42.455Z,28.55
2022-08-10T16:21:18.951Z,28.49
2022-08-10T16:24:14.419Z,28.58
2022-08-10T16:26:54.100Z,28.68
2022-08-10T16:29:28.691Z,28.60
2022-08-10T16:32:04.514Z,28.57
2022-08-10T16:34:40.019Z,28.46
2022-08-10T16:37:15.470Z,28.48
2022-08-10T16:39:57.760Z,28.38
2022-08-10T16:42:40.615Z,28.28
2022-08-10T16:45:22.491Z,28.32
2022-08-10T16:47:57.238Z,28.21
2022-08-10T16:50:36.485Z,28.17
2022-08-10T16:53:14.463Z,28.18
2022-08-10T16:55:52.750Z,28.10
2022-08-10T16:58:28.562Z,28.20
2022-08-10T17:01:05.781Z,28.20
2022-08-10T17:04:05.762Z,28.14
2022-08-10T17:06:42.886Z,28.12
2022-08-10T17:09:19.676Z,28.03
2022-08-10T17:11:58.152Z,28.08
2022-08-10T17:14:32.167Z,28.05
2022-08-10T17:17:10.298Z,27.92
2022-08-10T17:19:46.370Z,27.82
2022-08-10T17:22:22.283Z,27.78
2022-08-10T17:25:09.407Z,27.81
2022-08-10T17:28:05.223Z,27.79
2022-08-10T17:30:58.178Z,27.75
2022-08-10T17:33:32.504Z,27.65
2022-08-10T17:36:06.696Z,27.75
2022-08-10T17:38:40.019Z,27.67
2022-08-10T17:41:14.771Z,27.63
2022-08-10T17:44:02.552Z,27.60
2022-08-10T17:46:41.674Z,27.64
2022-08-10T17:49:17.200Z,27.49
2022-08-10T17:51:54.874Z,27.59
2022-08-10T17:54:32.368Z,27.38
2022-08-10T17:57:11.145Z,27.34
2022-08-10T17:59:47.626Z,27.22
2022-08-10T18:02:30.111Z,27.14
2022-08-10T18:05:04.420Z,27.18
2022-08-10T18:07:43.407Z,27.00
2022-08-10T18:10:19.787Z,27.14
2022-08-10T18:12:55.472Z,26.90
2022-08-10T18:15:32.394Z,26.84
2022-08-10T18:18:12.579Z,26.78
2022-08-10T18:20:45.857Z,26.74
2022-08-10T18:23:27.083Z,26.61
2022-08-10T18:26:04.614Z,26.57
2022-08-10T18:28:41.480Z,26.62
2022-08-10T18:31:21.408Z,26.54
2022-08-10T18:33:58.216Z,26.39
2022-08-10T18:36:33.675Z,26.25
2022-08-10T18:39:08.161Z,26.21
2022-08-10T18:42:00.470Z,26.14
2022-08-10T18:44:42.472Z,26.02
2022-08-10T18:47:27.200Z,26.04
2022-08-10T18:50:08.001Z,25.89
2022-08-10T18:52:45.228Z,25.89
2022-08-10T18:55:27.125Z,25.79
2022-08-10T18:58:48.888Z,25.71
2022-08-10T19:01:54.212Z,25.59
2022-08-10T19:04:49.762Z,25.53
2022-08-10T19:07:53.831Z,25.34
2022-08-10T19:10:38.442Z,25.34
2022-08-10T19:13:20.986Z,25.26
2022-08-10T19:16:03.093Z,25.17
2022-08-10T19:18:44.056Z,25.16
2022-08-10T19:21:24.791Z,25.06
2022-08-10T19:24:06.186Z,25.06
2022-08-10T19:26:48.080Z,24.95
2022-08-10T19:30:08.829Z,24.80
2022-08-10T19:32:37.922Z,24.59
2022-08-10T19:35:20.190Z,24.50
2022-08-10T19:38:08.154Z,24.47
2022-08-10T19:41:09.523Z,24.34
2022-08-10T19:44:01.656Z,24.20
2022-08-10T19:46:42.847Z,24.06
2022-08-10T19:49:25.300Z,23.96
2022-08-10T19:52:11.596Z,23.88
2022-08-10T19:54:56.038Z,23.69
2022-08-10T19:57:37.010Z,23.53
2022-08-10T20:00:18.839Z,23.42
2022-08-10T20:03:07.534Z,23.30
2022-08-10T20:06:13.027Z,23.20
2022-08-10T20:08:55.435Z,23.07
2022-08-10T20:11:44.442Z,22.95
2022-08-10T20:14:25.191Z,22.83
2022-08-10T20:17:05.422Z,22.70
2022-08-10T20:19:52.403Z,22.65
2022-08-10T20:22:33.590Z,22.60
2022-08-10T20:25:14.641Z,22.53
2022-08-10T20:28:00.368Z,22.36
2022-08-10T20:30:37.906Z,22.23
2022-08-10T20:33:19.149Z,22.18
2022-08-10T20:36:01.513Z,22.12
2022-08-10T20:38:45.438Z,22.11
2022-08-10T20:41:27.232Z,22.00
2022-08-10T20:44:14.475Z,21.91
2022-08-10T20:46:57.739Z,21.82
2022-08-10T20:49:42.673Z,21.71
2022-08-10T20:52:16.347Z,21.59
2022-08-10T20:54:53.730Z,21.53
2022-08-10T20:58:11.038Z,21.42
2022-08-10T21:00:58.081Z,21.42
2022-08-10T21:04:13.385Z,21.31
2022-08-10T21:07:28.498Z,21.21
2022-08-10T21:10:19.979Z,21.07
2022-08-10T21:13:14.475Z,21.07
2022-08-10T21:16:02.340Z,21.03
2022-08-10T21:18:51.992Z,20.90
2022-08-10T21:25:42.041Z,20.80
2022-08-10T21:28:10.798Z,20.76
2022-08-10T21:31:12.303Z,20.68
2022-08-10T21:33:54.876Z,20.64
2022-08-10T21:36:34.336Z,20.59
2022-08-10T21:39:14.021Z,20.55
2022-08-10T21:42:14.819Z,20.52
2022-08-10T21:45:17.126Z,20.40
2022-08-10T21:48:30.148Z,20.34
2022-08-10T21:52:00.492Z,20.24
2022-08-10T21:54:54.639Z,19.89
2022-08-10T21:58:00.242Z,19.83
2022-08-10T22:00:56.516Z,19.84
2022-08-10T22:03:49.406Z,19.73
2022-08-10T22:06:52.234Z,19.72
2022-08-10T22:09:49.307Z,19.65
2022-08-10T22:12:48.783Z,19.61
2022-08-10T22:19:01.623Z,19.56
2022-08-10T22:22:05.775Z,19.57
2022-08-10T22:25:19.303Z,19.42
2022-08-10T22:28:17.455Z,19.36
2022-08-10T22:31:28.474Z,19.56
2022-08-10T22:31:28.552Z,20.92
2022-08-10T22:31:32.166Z,19.26
2022-08-10T22:35:00.563Z,19.24
2022-08-10T22:38:07.580Z,19.16
2022-08-10T22:41:04.009Z,19.16
2022-08-10T22:43:56.715Z,19.02
2022-08-10T22:46:51.227Z,18.95
2022-08-10T22:49:25.403Z,18.89
2022-08-10T22:52:07.733Z,18.87
2022-08-10T22:55:08.034Z,18.87
2022-08-10T22:58:03.910Z,18.78
2022-08-10T23:00:38.715Z,18.73
2022-08-10T23:03:22.045Z,18.69
2022-08-10T23:06:01.556Z,18.60
2022-08-10T23:08:42.756Z,18.63
2022-08-10T23:11:24.043Z,18.58
2022-08-10T23:14:02.638Z,18.57
2022-08-10T23:17:00.726Z,18.53
2022-08-10T23:19:39.475Z,18.53
2022-08-10T23:22:17.473Z,18.48
2022-08-10T23:24:55.091Z,18.43
2022-08-10T23:27:38.536Z,18.37
2022-08-10T23:30:17.493Z,18.28
2022-08-10T23:33:00.314Z,18.26
2022-08-10T23:36:30.925Z,18.26
2022-08-10T23:38:44.904Z,18.23
2022-08-10T23:41:34.502Z,18.13
2022-08-10T23:44:09.348Z,18.06
2022-08-10T23:46:46.529Z,17.99
2022-08-10T23:49:21.214Z,17.95
2022-08-10T23:51:57.508Z,17.81
2022-08-10T23:54:32.175Z,17.74
2022-08-10T23:57:05.760Z,17.75
2022-08-10T23:59:39.498Z,17.73
